Time;durP1;ratioP1;P1;durP2;ratioP2;P2;SDS_P1;SDS_P2;PMS_P1;PMS_P2;Temp;Humidity;BMP_temperature;BMP_pressure;BME280_temperature;BME280_humidity;BME280_pressure;Samples;Min_cycle;Max_cycle;Signal;HPM_P1;HPM_P2
2022/05/13 00:01:06;;;;;;;4.40;2.53;;;;;;;;;;6210573;23;20009;-84
2022/05/13 00:03:32;;;;;;;5.03;2.25;;;;;;;;;;6187335;23;20005;-83
2022/05/13 00:05:58;;;;;;;7.80;2.55;;;;;;;;;;6186612;23;20009;-85
2022/05/13 00:08:25;;;;;;;7.43;2.38;;;;;;;;;;6210016;23;20008;-84
2022/05/13 00:10:50;;;;;;;6.75;2.40;;;;;;;;;;6186678;23;20005;-84
2022/05/13 00:13:17;;;;;;;6.50;2.55;;;;;;;;;;6187143;23;20072;-84
2022/05/13 00:15:44;;;;;;;6.72;2.90;;;;;;;;;;6187573;23;20005;-85
2022/05/13 00:18:10;;;;;;;3.92;2.25;;;;;;;;;;6185323;23;20009;-86
2022/05/13 00:20:36;;;;;;;9.07;1.98;;;;;;;;;;6185527;23;20012;-85
2022/05/13 00:23:02;;;;;;;5.88;2.35;;;;;;;;;;6187693;23;20339;-85
2022/05/13 00:25:30;;;;;;;5.10;2.53;;;;;;;;;;6189508;23;20005;-86
2022/05/13 00:27:56;;;;;;;4.13;2.08;;;;;;;;;;6187718;23;20011;-86
2022/05/13 00:30:23;;;;;;;5.43;2.10;;;;;;;;;;6210258;23;20001;-85
2022/05/13 00:32:49;;;;;;;8.25;2.78;;;;;;;;;;6187288;23;20005;-85
2022/05/13 00:35:15;;;;;;;7.57;2.33;;;;;;;;;;6187506;23;20040;-85
2022/05/13 00:37:41;;;;;;;9.95;2.70;;;;;;;;;;6187824;23;20017;-86
2022/05/13 00:40:09;;;;;;;5.18;2.50;;;;;;;;;;6188167;23;20041;-85
2022/05/13 00:42:35;;;;;;;7.43;2.70;;;;;;;;;;6187643;23;20007;-85
2022/05/13 00:45:01;;;;;;;5.55;2.42;;;;;;;;;;6187666;23;20001;-85
2022/05/13 00:47:27;;;;;;;5.95;2.55;;;;;;;;;;6186258;23;20005;-85
2022/05/13 00:49:59;;;;;;;5.55;2.38;;;;;;;;;;6185852;23;20427;-85
2022/05/13 00:52:26;;;;;;;7.40;2.95;;;;;;;;;;6209443;23;20005;-85
2022/05/13 00:54:52;;;;;;;9.00;2.60;;;;;;;;;;6186450;23;20012;-85
2022/05/13 00:57:19;;;;;;;9.63;2.55;;;;;;;;;;6186536;23;20005;-85
2022/05/13 00:59:46;;;;;;;4.70;2.65;;;;;;;;;;6187467;23;20016;-86
2022/05/13 01:02:12;;;;;;;4.93;2.80;;;;;;;;;;6210265;23;20001;-85
2022/05/13 01:04:38;;;;;;;5.60;2.65;;;;;;;;;;6184856;23;20004;-86
2022/05/13 01:07:11;;;;;;;6.78;2.80;;;;;;;;;;6209020;23;20080;-86
2022/05/13 01:09:39;;;;;;;8.80;2.83;;;;;;;;;;6187112;23;20023;-86
2022/05/13 01:12:09;;;;;;;5.25;2.72;;;;;;;;;;6186935;23;20032;-86
2022/05/13 01:14:43;;;;;;;8.15;2.50;;;;;;;;;;6187293;23;20001;-86
2022/05/13 01:20:11;;;;;;;6.90;2.20;;;;;;;;;;6187051;23;20019;-86
2022/05/13 01:22:42;;;;;;;4.57;2.53;;;;;;;;;;6187444;23;20001;-86
2022/05/13 01:25:08;;;;;;;5.05;2.50;;;;;;;;;;6188061;23;20001;-86
2022/05/13 01:27:34;;;;;;;7.50;2.75;;;;;;;;;;6189212;23;20144;-85
2022/05/13 01:30:00;;;;;;;3.38;2.45;;;;;;;;;;6190465;23;20005;-86
2022/05/13 01:32:26;;;;;;;7.18;2.55;;;;;;;;;;6187849;23;20001;-86
2022/05/13 01:34:52;;;;;;;9.55;2.53;;;;;;;;;;6189148;23;20076;-85
2022/05/13 01:37:18;;;;;;;11.30;2.65;;;;;;;;;;6187172;23;20009;-86
2022/05/13 01:39:51;;;;;;;7.28;2.80;;;;;;;;;;6185685;23;20005;-86
2022/05/13 01:42:18;;;;;;;7.28;3.30;;;;;;;;;;6209077;23;20035;-86
2022/05/13 01:44:44;;;;;;;11.15;2.72;;;;;;;;;;6188340;23;20008;-85
2022/05/13 01:47:12;;;;;;;9.25;2.50;;;;;;;;;;6234536;23;20001;-86
2022/05/13 01:49:38;;;;;;;9.10;3.05;;;;;;;;;;6210066;23;20375;-86
2022/05/13 01:52:05;;;;;;;7.93;2.80;;;;;;;;;;6189503;23;20005;-87
2022/05/13 01:54:31;;;;;;;9.75;2.72;;;;;;;;;;6191082;23;20024;-85
2022/05/13 01:56:57;;;;;;;6.03;2.83;;;;;;;;;;6211758;23;20048;-86
2022/05/13 01:59:26;;;;;;;5.00;2.78;;;;;;;;;;6186739;23;20005;-86
2022/05/13 02:01:55;;;;;;;12.93;3.08;;;;;;;;;;6184955;23;20013;-86
2022/05/13 02:04:21;;;;;;;5.63;2.53;;;;;;;;;;6187924;23;19993;-86
2022/05/13 02:06:47;;;;;;;8.73;3.13;;;;;;;;;;6190193;23;20153;-85
2022/05/13 02:09:13;;;;;;;6.03;3.03;;;;;;;;;;6191383;23;20193;-84
2022/05/13 02:11:39;;;;;;;4.68;2.50;;;;;;;;;;6191229;23;20368;-85
2022/05/13 02:14:05;;;;;;;6.93;2.75;;;;;;;;;;6190787;23;20019;-84
2022/05/13 02:16:31;;;;;;;8.82;2.72;;;;;;;;;;6192051;23;20072;-85
2022/05/13 02:18:58;;;;;;;6.35;2.63;;;;;;;;;;6190512;23;20424;-85
2022/05/13 02:21:24;;;;;;;7.85;2.85;;;;;;;;;;6212688;23;20470;-84
2022/05/13 02:23:50;;;;;;;6.28;2.70;;;;;;;;;;6191439;23;20005;-84
2022/05/13 02:26:17;;;;;;;6.70;2.30;;;;;;;;;;6190774;23;20001;-84
2022/05/13 02:28:43;;;;;;;6.95;2.67;;;;;;;;;;6213794;23;20005;-86
2022/05/13 02:31:09;;;;;;;9.10;2.58;;;;;;;;;;6190758;23;20028;-85
2022/05/13 02:33:35;;;;;;;12.70;2.78;;;;;;;;;;6191456;23;20050;-85
2022/05/13 02:36:02;;;;;;;9.15;3.00;;;;;;;;;;6190590;23;20009;-85
2022/05/13 02:38:28;;;;;;;8.43;3.10;;;;;;;;;;6190539;23;20072;-84
2022/05/13 02:41:13;;;;;;;6.72;3.13;;;;;;;;;;6189247;23;20076;-84
2022/05/13 02:43:50;;;;;;;11.40;2.78;;;;;;;;;;6189116;23;20008;-86
2022/05/13 02:46:21;;;;;;;10.25;2.97;;;;;;;;;;6190948;23;20297;-85
2022/05/13 02:48:47;;;;;;;;;;;;;;;;;;6191597;23;20004;-85
2022/05/13 02:51:14;;;;;;;5.05;2.42;;;;;;;;;;6189680;23;19900;-86
2022/05/13 02:53:40;;;;;;;11.50;2.78;;;;;;;;;;6190001;23;20012;-85
2022/05/13 02:56:07;;;;;;;3.13;2.10;;;;;;;;;;6190270;23;20339;-84
2022/05/13 02:58:33;;;;;;;9.07;2.58;;;;;;;;;;6213241;23;20338;-85
2022/05/13 03:01:00;;;;;;;9.30;3.28;;;;;;;;;;6214195;23;20068;-85
2022/05/13 03:03:26;;;;;;;9.65;2.50;;;;;;;;;;6191954;23;20009;-85
2022/05/13 03:05:52;;;;;;;6.55;2.20;;;;;;;;;;6191746;23;20012;-86
2022/05/13 03:08:19;;;;;;;9.88;2.33;;;;;;;;;;6191280;23;20004;-85
2022/05/13 03:10:45;;;;;;;12.48;2.15;;;;;;;;;;6190780;23;20008;-85
2022/05/13 03:13:11;;;;;;;6.20;2.45;;;;;;;;;;6214945;23;20096;-84
2022/05/13 03:15:37;;;;;;;6.43;2.63;;;;;;;;;;6190770;23;20490;-85
2022/05/13 03:18:03;;;;;;;8.27;2.45;;;;;;;;;;6213991;23;20339;-85
2022/05/13 03:20:29;;;;;;;10.10;2.65;;;;;;;;;;6214712;23;20396;-85
2022/05/13 03:22:55;;;;;;;5.15;2.13;;;;;;;;;;6190849;23;20069;-85
2022/05/13 03:25:22;;;;;;;7.18;2.47;;;;;;;;;;6191439;23;20001;-85
2022/05/13 03:27:48;;;;;;;7.47;3.20;;;;;;;;;;6190366;23;20331;-85
2022/05/13 03:30:15;;;;;;;8.52;2.33;;;;;;;;;;6189668;23;20004;-86
2022/05/13 03:32:41;;;;;;;10.98;2.50;;;;;;;;;;6190175;23;20005;-84
2022/05/13 03:35:09;;;;;;;6.25;2.33;;;;;;;;;;6215230;23;20009;-86
2022/05/13 03:37:35;;;;;;;11.48;3.10;;;;;;;;;;6191293;23;20025;-86
2022/05/13 03:40:02;;;;;;;5.03;2.75;;;;;;;;;;6212549;23;20005;-85
2022/05/13 03:42:28;;;;;;;5.35;2.40;;;;;;;;;;6190651;23;20019;-86
2022/05/13 03:44:55;;;;;;;7.30;2.70;;;;;;;;;;6190864;23;20072;-86
2022/05/13 03:47:21;;;;;;;9.63;2.72;;;;;;;;;;6213838;23;20021;-86
2022/05/13 03:49:47;;;;;;;8.10;2.42;;;;;;;;;;6221520;23;20004;-84
2022/05/13 03:52:14;;;;;;;14.43;3.42;;;;;;;;;;6203864;23;20001;-86
2022/05/13 03:54:40;;;;;;;8.60;2.72;;;;;;;;;;6196413;23;20005;-86
2022/05/13 03:57:07;;;;;;;6.85;2.30;;;;;;;;;;6219085;23;20009;-86
2022/05/13 03:59:33;;;;;;;8.93;2.35;;;;;;;;;;6194685;23;20012;-85
2022/05/13 04:01:59;;;;;;;9.18;2.88;;;;;;;;;;6216804;23;20005;-86
2022/05/13 04:04:29;;;;;;;12.57;2.90;;;;;;;;;;6216673;23;20347;-86
2022/05/13 04:09:43;;;;;;;5.28;2.00;;;;;;;;;;6193707;23;20012;-86
2022/05/13 04:17:22;;;;;;;9.23;2.75;;;;;;;;;;6182973;23;20177;-88
2022/05/13 04:19:48;;;;;;;15.73;3.42;;;;;;;;;;6182305;23;19994;-89
2022/05/13 04:22:14;;;;;;;9.20;2.88;;;;;;;;;;6182031;23;20024;-88
2022/05/13 04:24:40;;;;;;;8.07;2.80;;;;;;;;;;6182929;23;20033;-89
2022/05/13 04:27:06;;;;;;;10.73;2.60;;;;;;;;;;6182920;23;20005;-89
2022/05/13 04:29:33;;;;;;;7.32;2.75;;;;;;;;;;6183020;23;20088;-89
2022/05/13 04:31:59;;;;;;;7.18;2.70;;;;;;;;;;6206669;23;20128;-88
2022/05/13 04:34:25;;;;;;;8.88;3.25;;;;;;;;;;6182884;23;19993;-89
2022/05/13 04:36:51;;;;;;;5.30;2.55;;;;;;;;;;6182820;23;19993;-88
2022/05/13 04:39:18;;;;;;;8.25;2.92;;;;;;;;;;6182588;23;20004;-88
2022/05/13 04:44:28;;;;;;;11.23;3.35;;;;;;;;;;6184903;23;20025;-89
2022/05/13 04:46:54;;;;;;;6.53;2.78;;;;;;;;;;6208814;23;20018;-89
2022/05/13 04:49:20;;;;;;;8.65;3.00;;;;;;;;;;6184802;23;19994;-89
2022/05/13 04:51:46;;;;;;;6.15;2.33;;;;;;;;;;6208841;23;19998;-88
2022/05/13 04:54:12;;;;;;;8.95;3.17;;;;;;;;;;6184771;23;20001;-89
2022/05/13 04:56:39;;;;;;;7.28;2.80;;;;;;;;;;6209083;23;19997;-89
2022/05/13 04:59:06;;;;;;;9.32;3.55;;;;;;;;;;6185058;23;19990;-89
2022/05/13 05:01:32;;;;;;;8.52;2.60;;;;;;;;;;6208690;23;19997;-89
2022/05/13 05:03:58;;;;;;;7.10;2.67;;;;;;;;;;6183269;23;20001;-87
2022/05/13 05:06:24;;;;;;;11.90;3.08;;;;;;;;;;6182757;23;20003;-88
2022/05/13 05:08:50;;;;;;;7.60;3.42;;;;;;;;;;6175827;23;20009;-89
2022/05/13 05:11:19;;;;;;;6.43;2.85;;;;;;;;;;6156034;23;20057;-89
2022/05/13 05:13:49;;;;;;;7.68;2.50;;;;;;;;;;6179845;23;20018;-90
2022/05/13 05:16:15;;;;;;;6.85;2.85;;;;;;;;;;6156474;23;20428;-89
2022/05/13 05:18:42;;;;;;;9.73;2.88;;;;;;;;;;6180237;23;20001;-89
2022/05/13 05:21:09;;;;;;;10.48;3.20;;;;;;;;;;6156494;23;20008;-89
2022/05/13 05:23:38;;;;;;;11.88;2.80;;;;;;;;;;6179444;23;20005;-88
2022/05/13 05:26:04;;;;;;;6.00;2.55;;;;;;;;;;6179591;23;20390;-88
2022/05/13 05:28:31;;;;;;;8.98;3.75;;;;;;;;;;6179651;23;20137;-89
2022/05/13 05:31:03;;;;;;;8.77;2.95;;;;;;;;;;6157154;23;20001;-88
2022/05/13 05:33:42;;;;;;;7.63;2.45;;;;;;;;;;6156595;23;20001;-88
2022/05/13 05:36:11;;;;;;;7.18;2.78;;;;;;;;;;6153837;23;20005;-88
2022/05/13 05:38:40;;;;;;;9.20;2.63;;;;;;;;;;6156435;23;20076;-89
2022/05/13 05:41:27;;;;;;;9.35;2.85;;;;;;;;;;6179184;23;20002;-88
2022/05/13 05:43:56;;;;;;;10.15;3.17;;;;;;;;;;6154921;23;20015;-89
2022/05/13 05:49:34;;;;;;;7.05;2.60;;;;;;;;;;6155683;23;20133;-88
2022/05/13 05:52:07;;;;;;;11.00;2.45;;;;;;;;;;6147327;23;20274;-87
2022/05/13 05:57:21;;;;;;;6.18;2.65;;;;;;;;;;6156479;23;20393;-88
2022/05/13 05:59:54;;;;;;;4.93;2.35;;;;;;;;;;6155776;23;20009;-89
2022/05/13 06:02:20;;;;;;;10.93;2.65;;;;;;;;;;6156302;23;20092;-88
2022/05/13 06:08:08;;;;;;;9.45;3.20;;;;;;;;;;6157244;23;20016;-88
2022/05/13 06:10:35;;;;;;;8.02;2.95;;;;;;;;;;6157073;23;20037;-88
2022/05/13 06:13:02;;;;;;;11.90;2.42;;;;;;;;;;6179717;23;20010;-88
2022/05/13 06:15:37;;;;;;;9.05;2.45;;;;;;;;;;6156686;23;20064;-89
2022/05/13 06:18:14;;;;;;;14.23;2.92;;;;;;;;;;6181681;23;20005;-87
2022/05/13 06:20:56;;;;;;;9.07;2.53;;;;;;;;;;6157827;23;20013;-88
2022/05/13 06:23:35;;;;;;;10.55;2.78;;;;;;;;;;6178358;23;20009;-88
2022/05/13 06:26:02;;;;;;;6.60;2.28;;;;;;;;;;6156529;23;20008;-88
2022/05/13 06:28:28;;;;;;;8.07;2.30;;;;;;;;;;6156042;23;20013;-87
2022/05/13 06:31:17;;;;;;;;;;;;;;;;;;;;;
2022/05/13 06:33:44;;;;;;;5.55;2.60;;;;;;;;;;6174110;23;20403;-88
2022/05/13 06:36:16;;;;;;;16.27;2.90;;;;;;;;;;6186109;23;20075;-87
2022/05/13 06:38:42;;;;;;;8.50;2.78;;;;;;;;;;6185019;23;20499;-88
2022/05/13 06:41:08;;;;;;;9.60;2.63;;;;;;;;;;6184375;23;19997;-88
2022/05/13 06:44:03;;;;;;;7.40;2.30;;;;;;;;;;6186853;23;20065;-88
2022/05/13 06:47:05;;;;;;;8.80;2.60;;;;;;;;;;6185173;23;20084;-88
2022/05/13 06:49:37;;;;;;;7.82;2.20;;;;;;;;;;6157554;23;20439;-88
2022/05/13 06:52:15;;;;;;;8.73;2.40;;;;;;;;;;6184677;23;20009;-88
2022/05/13 06:55:02;;;;;;;14.15;2.63;;;;;;;;;;6193130;23;19985;-89
2022/05/13 06:57:29;;;;;;;9.82;2.40;;;;;;;;;;6132839;23;20068;-91
2022/05/13 06:59:58;;;;;;;7.45;2.75;;;;;;;;;;6128973;23;20005;-89
2022/05/13 07:02:30;;;;;;;6.57;2.20;;;;;;;;;;6153597;23;20091;-88
2022/05/13 07:05:10;;;;;;;9.52;2.45;;;;;;;;;;6145361;23;20001;-90
2022/05/13 07:07:48;;;;;;;;;;;;;;;;;;;;;
2022/05/13 07:10:16;;;;;;;4.22;1.88;;;;;;;;;;6186000;23;20369;-89
2022/05/13 07:12:43;;;;;;;8.05;1.98;;;;;;;;;;6186410;23;20383;-88
2022/05/13 07:15:13;;;;;;;7.60;1.98;;;;;;;;;;6183946;23;20001;-90
2022/05/13 07:17:39;;;;;;;8.32;2.25;;;;;;;;;;6183322;23;19997;-88
2022/05/13 07:20:06;;;;;;;10.40;2.20;;;;;;;;;;6183179;23;20423;-88
2022/05/13 07:22:34;;;;;;;7.65;2.03;;;;;;;;;;6184403;23;20335;-87
2022/05/13 07:25:03;;;;;;;10.55;2.05;;;;;;;;;;6183795;23;20404;-89
2022/05/13 07:27:29;;;;;;;11.05;2.67;;;;;;;;;;6184874;23;20084;-89
2022/05/13 07:29:55;;;;;;;12.45;2.05;;;;;;;;;;6184136;23;20007;-89
2022/05/13 07:32:23;;;;;;;7.15;2.45;;;;;;;;;;6183762;23;20005;-89
2022/05/13 07:34:52;;;;;;;8.40;2.10;;;;;;;;;;6185179;23;19997;-90
2022/05/13 07:37:20;;;;;;;7.07;2.10;;;;;;;;;;6184971;23;19998;-88
2022/05/13 07:42:35;;;;;;;13.88;2.50;;;;;;;;;;6185925;23;20015;-90
2022/05/13 07:45:04;;;;;;;10.93;2.60;;;;;;;;;;6185988;23;20005;-90
2022/05/13 07:47:31;;;;;;;7.65;1.77;;;;;;;;;;6184025;23;20009;-90
2022/05/13 07:49:57;;;;;;;6.78;1.70;;;;;;;;;;6184006;23;20012;-89
2022/05/13 07:52:24;;;;;;;7.28;1.67;;;;;;;;;;6184755;23;20009;-89
2022/05/13 07:54:50;;;;;;;5.57;1.80;;;;;;;;;;6183634;23;20083;-89
2022/05/13 07:57:16;;;;;;;5.53;2.05;;;;;;;;;;6185701;23;20008;-89
2022/05/13 08:02:34;;;;;;;7.05;2.00;;;;;;;;;;6184680;23;20020;-88
2022/05/13 08:05:00;;;;;;;6.80;2.03;;;;;;;;;;6184668;23;20012;-89
2022/05/13 08:07:26;;;;;;;6.22;1.65;;;;;;;;;;6184472;23;20005;-89
2022/05/13 08:10:00;;;;;;;4.55;1.60;;;;;;;;;;6184889;23;20390;-89
2022/05/13 08:12:26;;;;;;;9.20;1.75;;;;;;;;;;6183345;23;20465;-89
2022/05/13 08:14:53;;;;;;;6.97;1.45;;;;;;;;;;6184930;23;20012;-90
2022/05/13 08:17:19;;;;;;;8.73;2.00;;;;;;;;;;6182828;23;20009;-89
2022/05/13 08:19:45;;;;;;;6.78;1.80;;;;;;;;;;6184660;23;20457;-89
2022/05/13 08:22:11;;;;;;;4.90;1.75;;;;;;;;;;6185109;23;20072;-89
2022/05/13 08:24:37;;;;;;;10.10;1.55;;;;;;;;;;6159201;23;20072;-88
2022/05/13 08:27:03;;;;;;;7.38;1.33;;;;;;;;;;6186030;23;20002;-89
2022/05/13 08:29:29;;;;;;;8.77;2.00;;;;;;;;;;6184980;23;20068;-89
2022/05/13 08:31:55;;;;;;;12.88;1.60;;;;;;;;;;6185690;23;19998;-90
2022/05/13 08:34:29;;;;;;;9.27;1.80;;;;;;;;;;6183619;23;20027;-88
2022/05/13 08:36:55;;;;;;;7.13;1.95;;;;;;;;;;6198918;23;19997;-88
2022/05/13 08:39:21;;;;;;;9.40;1.92;;;;;;;;;;6202544;23;20001;-88
2022/05/13 08:41:52;;;;;;;7.13;1.90;;;;;;;;;;6196850;23;19997;-89
2022/05/13 08:44:18;;;;;;;5.57;1.77;;;;;;;;;;6188553;23;20072;-88
2022/05/13 08:46:57;;;;;;;7.30;1.67;;;;;;;;;;6184223;23;20016;-90
2022/05/13 08:49:36;;;;;;;4.82;1.65;;;;;;;;;;6183900;23;20040;-90
2022/05/13 08:55:08;;;;;;;8.68;1.52;;;;;;;;;;6186262;23;20028;-90
2022/05/13 08:57:41;;;;;;;7.55;1.60;;;;;;;;;;6185174;23;20004;-89
2022/05/13 09:00:11;;;;;;;5.68;1.40;;;;;;;;;;6182918;23;20008;-88
2022/05/13 09:02:38;;;;;;;5.90;1.40;;;;;;;;;;6184260;23;20462;-89
2022/05/13 09:05:14;;;;;;;3.35;1.38;;;;;;;;;;6182754;23;19997;-90
2022/05/13 09:07:40;;;;;;;5.07;2.00;;;;;;;;;;6185099;23;20001;-90
2022/05/13 09:10:10;;;;;;;7.95;1.45;;;;;;;;;;6184848;23;20056;-89
2022/05/13 09:12:45;;;;;;;11.70;2.20;;;;;;;;;;6183412;23;20005;-90
2022/05/13 09:15:18;;;;;;;5.10;1.50;;;;;;;;;;6183338;23;20020;-91
2022/05/13 09:18:07;;;;;;;8.57;1.85;;;;;;;;;;6184660;23;20331;-91
2022/05/13 09:20:59;;;;;;;6.72;1.55;;;;;;;;;;6169232;23;20016;-87
2022/05/13 09:23:26;;;;;;;4.38;1.35;;;;;;;;;;6171966;23;20001;-88
2022/05/13 09:25:55;;;;;;;7.10;1.27;;;;;;;;;;6184891;23;20312;-89
2022/05/13 09:28:22;;;;;;;7.45;1.45;;;;;;;;;;6185943;23;20029;-90
2022/05/13 09:30:50;;;;;;;11.35;1.58;;;;;;;;;;6184450;23;20008;-89
2022/05/13 09:33:19;;;;;;;6.75;1.60;;;;;;;;;;6184329;23;20001;-90
2022/05/13 09:35:46;;;;;;;5.88;1.55;;;;;;;;;;6186494;23;20001;-90
2022/05/13 09:38:16;;;;;;;6.63;1.05;;;;;;;;;;6184838;23;20028;-89
2022/05/13 09:40:42;;;;;;;8.15;1.05;;;;;;;;;;6187047;23;20031;-90
2022/05/13 09:43:10;;;;;;;4.95;1.10;;;;;;;;;;6185201;23;20080;-90
2022/05/13 09:45:36;;;;;;;8.20;1.15;;;;;;;;;;6185012;23;20012;-90
2022/05/13 09:48:02;;;;;;;9.32;1.38;;;;;;;;;;6186109;23;20001;-89
2022/05/13 09:50:31;;;;;;;8.15;1.67;;;;;;;;;;6186728;23;20009;-90
2022/05/13 09:53:26;;;;;;;5.82;1.20;;;;;;;;;;6184905;23;20012;-87
2022/05/13 09:55:56;;;;;;;8.63;1.60;;;;;;;;;;6191900;23;20020;-89
2022/05/13 09:58:23;;;;;;;3.42;1.13;;;;;;;;;;6184646;23;19997;-88
2022/05/13 10:00:52;;;;;;;5.97;1.17;;;;;;;;;;6185366;23;20001;-89
2022/05/13 10:03:20;;;;;;;4.00;1.20;;;;;;;;;;6185721;23;20072;-88
2022/05/13 10:05:53;;;;;;;4.28;1.17;;;;;;;;;;6186060;23;20017;-88
2022/05/13 10:08:23;;;;;;;8.73;1.50;;;;;;;;;;6184740;23;20418;-88
2022/05/13 10:14:04;;;;;;;5.70;1.13;;;;;;;;;;6169423;23;20024;-88
2022/05/13 10:16:38;;;;;;;3.58;1.13;;;;;;;;;;6186758;23;20072;-87
2022/05/13 10:19:04;;;;;;;6.80;1.42;;;;;;;;;;6185176;23;20001;-87
2022/05/13 10:21:34;;;;;;;6.38;1.52;;;;;;;;;;6185715;23;20136;-87
2022/05/13 10:24:01;;;;;;;4.85;1.17;;;;;;;;;;6186028;23;20089;-87
2022/05/13 10:26:34;;;;;;;2.83;1.00;;;;;;;;;;6185540;23;20019;-87
2022/05/13 10:29:19;;;;;;;3.28;1.05;;;;;;;;;;6183888;23;20076;-88
2022/05/13 10:31:47;;;;;;;6.32;0.98;;;;;;;;;;6185267;23;20064;-88
2022/05/13 10:34:19;;;;;;;3.20;0.95;;;;;;;;;;6185473;23;20035;-87
2022/05/13 10:36:50;;;;;;;3.47;0.98;;;;;;;;;;6183741;23;20009;-87
2022/05/13 10:39:22;;;;;;;7.63;0.88;;;;;;;;;;6185008;23;20379;-86
2022/05/13 10:41:51;;;;;;;4.80;0.93;;;;;;;;;;6183510;23;20001;-88
2022/05/13 10:44:18;;;;;;;7.20;1.42;;;;;;;;;;6183627;23;20084;-87
2022/05/13 10:46:47;;;;;;;5.35;0.98;;;;;;;;;;6184844;23;20011;-87
2022/05/13 10:49:14;;;;;;;3.28;0.85;;;;;;;;;;6185489;23;20009;-87
2022/05/13 10:51:45;;;;;;;7.57;1.05;;;;;;;;;;6192381;23;20339;-87
2022/05/13 10:54:30;;;;;;;3.63;0.90;;;;;;;;;;6185639;23;20001;-88
2022/05/13 10:57:12;;;;;;;4.57;0.77;;;;;;;;;;6189945;23;20005;-88
2022/05/13 10:59:39;;;;;;;7.07;0.93;;;;;;;;;;6189219;23;20001;-87
2022/05/13 11:02:14;;;;;;;2.03;0.73;;;;;;;;;;6185589;23;20001;-89
2022/05/13 11:04:50;;;;;;;5.57;0.70;;;;;;;;;;6183316;23;20508;-90
2022/05/13 11:07:25;;;;;;;5.18;1.33;;;;;;;;;;6185720;23;20024;-91
2022/05/13 11:09:51;;;;;;;4.50;0.80;;;;;;;;;;6185114;23;20001;-91
2022/05/13 11:12:36;;;;;;;3.13;0.85;;;;;;;;;;6184709;23;20005;-90
2022/05/13 11:15:21;;;;;;;6.45;0.85;;;;;;;;;;6183836;23;20490;-90
2022/05/13 11:18:06;;;;;;;2.80;0.90;;;;;;;;;;6183655;23;20001;-90
2022/05/13 11:20:49;;;;;;;3.72;0.90;;;;;;;;;;6185420;23;20012;-90
2022/05/13 11:23:21;;;;;;;9.07;1.15;;;;;;;;;;6185913;23;20320;-90
2022/05/13 11:26:12;;;;;;;2.33;0.95;;;;;;;;;;6185360;23;20444;-89
2022/05/13 11:28:43;;;;;;;6.38;1.00;;;;;;;;;;6185594;23;20470;-90
2022/05/13 11:31:12;;;;;;;3.13;0.80;;;;;;;;;;6182807;23;20012;-90
2022/05/13 11:33:53;;;;;;;5.43;1.05;;;;;;;;;;6184008;23;20005;-89
2022/05/13 11:36:32;;;;;;;4.95;1.30;;;;;;;;;;6185089;23;20486;-90
2022/05/13 11:39:04;;;;;;;6.07;0.90;;;;;;;;;;6185166;23;20005;-90
2022/05/13 11:41:53;;;;;;;4.00;0.82;;;;;;;;;;6183528;23;20020;-90
2022/05/13 11:44:35;;;;;;;4.30;1.10;;;;;;;;;;6182685;23;20012;-88
2022/05/13 11:47:14;;;;;;;7.93;1.08;;;;;;;;;;6183998;23;20008;-91
2022/05/13 11:49:47;;;;;;;4.25;1.05;;;;;;;;;;6183412;23;20001;-90
2022/05/13 11:52:18;;;;;;;5.55;0.98;;;;;;;;;;6184249;23;20025;-91
2022/05/13 11:54:48;;;;;;;3.33;0.95;;;;;;;;;;6185728;23;20454;-90
2022/05/13 11:57:24;;;;;;;5.37;1.00;;;;;;;;;;6183846;23;20001;-91
2022/05/13 11:59:51;;;;;;;6.82;1.27;;;;;;;;;;6184070;23;20064;-89
2022/05/13 12:02:29;;;;;;;3.78;0.98;;;;;;;;;;6182966;23;20008;-89
2022/05/13 12:05:05;;;;;;;5.25;0.85;;;;;;;;;;6185233;23;20005;-90
2022/05/13 12:07:34;;;;;;;6.25;0.90;;;;;;;;;;6185299;23;20004;-90
2022/05/13 12:10:07;;;;;;;5.22;0.82;;;;;;;;;;6185055;23;20001;-88
2022/05/13 12:12:55;;;;;;;5.45;1.55;;;;;;;;;;6185691;23;20446;-90
2022/05/13 12:15:27;;;;;;;4.57;1.10;;;;;;;;;;6183761;23;20016;-90
2022/05/13 12:18:21;;;;;;;7.45;1.10;;;;;;;;;;6185105;23;20028;-90
2022/05/13 12:20:58;;;;;;;3.17;1.05;;;;;;;;;;6185048;23;20444;-90
2022/05/13 12:23:45;;;;;;;9.25;3.03;;;;;;;;;;6185235;23;20009;-90
2022/05/13 12:26:13;;;;;;;3.13;0.98;;;;;;;;;;6184304;23;20060;-89
2022/05/13 12:29:05;;;;;;;3.33;0.98;;;;;;;;;;6185316;23;20431;-89
2022/05/13 12:31:46;;;;;;;3.65;1.02;;;;;;;;;;6182659;23;20068;-90
2022/05/13 12:39:58;;;;;;;4.30;1.00;;;;;;;;;;6184824;23;20351;-90
2022/05/13 12:42:46;;;;;;;3.00;1.42;;;;;;;;;;6185026;23;20023;-90
2022/05/13 12:45:21;;;;;;;7.93;1.17;;;;;;;;;;6183164;23;20001;-90
2022/05/13 12:47:56;;;;;;;5.10;0.82;;;;;;;;;;6183607;23;20084;-90
2022/05/13 12:50:40;;;;;;;3.00;0.70;;;;;;;;;;6197895;23;20343;-90
2022/05/13 12:53:25;;;;;;;4.60;0.52;;;;;;;;;;6184525;23;20009;-90
2022/05/13 12:55:51;;;;;;;3.10;0.80;;;;;;;;;;6184078;23;20001;-90
2022/05/13 12:58:22;;;;;;;2.47;0.95;;;;;;;;;;6182600;23;20009;-90
2022/05/13 13:00:49;;;;;;;4.15;0.95;;;;;;;;;;6184973;23;20446;-90
2022/05/13 13:03:18;;;;;;;2.88;0.82;;;;;;;;;;6186134;23;20005;-89
2022/05/13 13:05:51;;;;;;;2.25;0.98;;;;;;;;;;6186932;23;20064;-88
2022/05/13 13:08:22;;;;;;;3.75;0.88;;;;;;;;;;6184707;23;20016;-87
2022/05/13 13:10:47;;;;;;;;;;;;;;;;;;6184867;23;20095;-89
2022/05/13 13:13:23;;;;;;;4.15;0.68;;;;;;;;;;6159615;23;19943;-89
2022/05/13 13:16:10;;;;;;;3.72;0.52;;;;;;;;;;6184975;23;20603;-89
2022/05/13 13:18:37;;;;;;;7.05;0.70;;;;;;;;;;6169947;23;20324;-89
2022/05/13 13:21:09;;;;;;;3.50;0.70;;;;;;;;;;6186558;23;20008;-89
2022/05/13 13:23:43;;;;;;;3.83;0.63;;;;;;;;;;6184355;23;20354;-88
2022/05/13 13:26:10;;;;;;;2.88;0.70;;;;;;;;;;6184507;23;20005;-90
2022/05/13 13:28:43;;;;;;;4.22;0.80;;;;;;;;;;6186557;23;20009;-89
2022/05/13 13:31:13;;;;;;;3.38;0.60;;;;;;;;;;6183506;23;20005;-88
2022/05/13 13:33:50;;;;;;;8.03;0.90;;;;;;;;;;6186367;23;19997;-90
2022/05/13 13:36:32;;;;;;;3.55;0.68;;;;;;;;;;6184372;23;20001;-90
2022/05/13 13:39:08;;;;;;;3.15;0.77;;;;;;;;;;6186636;23;20008;-89
2022/05/13 13:41:35;;;;;;;3.22;0.70;;;;;;;;;;6184267;23;20005;-90
2022/05/13 13:44:08;;;;;;;2.42;0.95;;;;;;;;;;6186442;23;20001;-90
2022/05/13 13:46:48;;;;;;;1.38;0.40;;;;;;;;;;6185056;23;20005;-90
2022/05/13 13:49:18;;;;;;;5.90;0.70;;;;;;;;;;6186517;23;20013;-89
2022/05/13 13:51:47;;;;;;;3.63;0.88;;;;;;;;;;6186064;23;20027;-89
2022/05/13 13:54:24;;;;;;;5.72;0.75;;;;;;;;;;6185616;23;20005;-88
2022/05/13 13:56:58;;;;;;;4.30;0.88;;;;;;;;;;6189208;23;19997;-89
2022/05/13 13:59:43;;;;;;;5.50;1.30;;;;;;;;;;6186197;23;20008;-89
2022/05/13 14:02:34;;;;;;;4.63;1.23;;;;;;;;;;6185117;23;20088;-90
2022/05/13 14:07:56;;;;;;;2.28;0.73;;;;;;;;;;6186244;23;20005;-89
2022/05/13 14:10:27;;;;;;;4.28;0.80;;;;;;;;;;6186054;23;20012;-89
2022/05/13 14:13:06;;;;;;;6.50;1.15;;;;;;;;;;6183679;23;20044;-90
2022/05/13 14:15:41;;;;;;;5.38;0.68;;;;;;;;;;6187628;23;20001;-89
2022/05/13 14:18:10;;;;;;;3.15;0.70;;;;;;;;;;6185699;23;20001;-90
2022/05/13 14:20:37;;;;;;;5.40;1.02;;;;;;;;;;6186495;23;20068;-90
2022/05/13 14:23:05;;;;;;;6.90;1.00;;;;;;;;;;6186549;23;20485;-90
2022/05/13 14:25:33;;;;;;;4.90;0.80;;;;;;;;;;6190944;23;20036;-90
2022/05/13 14:28:00;;;;;;;2.47;0.55;;;;;;;;;;6188379;23;20005;-90
2022/05/13 14:30:31;;;;;;;3.45;0.88;;;;;;;;;;6187150;23;20005;-91
2022/05/13 14:32:57;;;;;;;3.05;0.80;;;;;;;;;;6190999;23;20009;-90
2022/05/13 14:35:32;;;;;;;4.32;0.60;;;;;;;;;;6187744;23;20001;-90
2022/05/13 14:37:59;;;;;;;5.97;0.88;;;;;;;;;;6188953;23;20025;-91
2022/05/13 14:40:30;;;;;;;1.90;0.65;;;;;;;;;;6187278;23;20005;-91
2022/05/13 14:43:00;;;;;;;3.78;0.50;;;;;;;;;;6187716;23;20009;-90
2022/05/13 14:45:29;;;;;;;5.88;0.73;;;;;;;;;;6187319;23;20033;-90
2022/05/13 14:48:16;;;;;;;2.63;0.68;;;;;;;;;;6185438;23;20092;-91
2022/05/13 14:50:44;;;;;;;3.20;0.88;;;;;;;;;;6200151;23;20005;-90
2022/05/13 14:53:12;;;;;;;5.00;0.55;;;;;;;;;;6188350;23;20432;-91
2022/05/13 14:55:42;;;;;;;2.60;0.73;;;;;;;;;;6191789;23;20001;-90
2022/05/13 14:58:27;;;;;;;4.05;0.57;;;;;;;;;;6191319;23;20222;-90
2022/05/13 15:00:54;;;;;;;3.85;0.80;;;;;;;;;;6192062;23;20490;-89
2022/05/13 15:03:28;;;;;;;3.35;0.60;;;;;;;;;;6200262;23;19989;-91
2022/05/13 15:05:54;;;;;;;5.15;1.02;;;;;;;;;;6202092;23;20005;-90
2022/05/13 15:08:26;;;;;;;5.25;0.77;;;;;;;;;;6192626;23;20076;-90
2022/05/13 15:10:55;;;;;;;7.88;0.95;;;;;;;;;;6196503;23;19997;-90
2022/05/13 15:13:26;;;;;;;7.43;1.15;;;;;;;;;;6189799;23;20013;-91
2022/05/13 15:15:53;;;;;;;2.25;0.52;;;;;;;;;;6190172;23;20072;-91
2022/05/13 15:21:18;;;;;;;1.45;0.55;;;;;;;;;;6189236;23;20016;-90
2022/05/13 15:26:40;;;;;;;1.13;0.50;;;;;;;;;;6175479;23;20009;-90
2022/05/13 15:29:08;;;;;;;1.85;0.60;;;;;;;;;;6205958;23;20009;-90
2022/05/13 15:31:50;;;;;;;3.97;0.70;;;;;;;;;;6198291;23;20316;-89
2022/05/13 15:34:16;;;;;;;3.72;0.68;;;;;;;;;;6190191;23;20005;-91
2022/05/13 15:36:42;;;;;;;6.05;0.60;;;;;;;;;;6188881;23;20005;-91
2022/05/13 15:39:12;;;;;;;3.03;0.80;;;;;;;;;;6187365;23;20005;-90
2022/05/13 15:41:38;;;;;;;2.72;0.65;;;;;;;;;;6186875;23;19993;-90
2022/05/13 15:44:05;;;;;;;2.10;0.80;;;;;;;;;;6187411;23;20011;-90
2022/05/13 15:46:45;;;;;;;4.97;0.80;;;;;;;;;;6185525;23;20439;-91
2022/05/13 15:54:43;;;;;;;1.40;0.45;;;;;;;;;;6187133;23;20085;-89
2022/05/13 15:57:21;;;;;;;5.13;0.68;;;;;;;;;;6186430;23;20001;-90